Terminal Aerodrome Forecast
Issued by NWS

Home | Current Version | Previous Version | Text Only | Print | Product List | Glossary On
Versions: 1 2 3 4 5 6 7 8 9 10 11 12 13 14 15 16 17 18
000
FTUS45 KRIW 290533
TAFCPR
TAF
KCPR 290533Z 2906/3006 09008KT P6SM VCSH BKN022 OVC040
     FM291000 08008KT P6SM VCSH BKN016 OVC026
     FM291800 06008KT P6SM SCT018 OVC028
     FM300000 08011KT P6SM VCSH SCT015 OVC024=

USA.gov is the U.S. government's official web portal to all federal, state and local government web resources and services.